sensor_id;sensor_type;location;lat;lon;timestamp;pressure;altitude;pressure_sealevel;temperature;humidity
15817;BME280;8009;50.070;8.232;2023-06-26T00:00:28;99830.84;;;23.29;47.24
15817;BME280;8009;50.070;8.232;2023-06-26T00:02:58;99834.50;;;23.08;47.85
15817;BME280;8009;50.070;8.232;2023-06-26T00:05:26;99832.19;;;22.55;48.37
15817;BME280;8009;50.070;8.232;2023-06-26T00:07:58;99827.31;;;22.85;48.22
15817;BME280;8009;50.070;8.232;2023-06-26T00:10:29;99834.00;;;23.26;46.79
15817;BME280;8009;50.070;8.232;2023-06-26T00:12:57;99834.50;;;22.80;47.83
15817;BME280;8009;50.070;8.232;2023-06-26T00:15:26;99832.19;;;22.55;48.85
15817;BME280;8009;50.070;8.232;2023-06-26T00:17:56;99832.81;;;23.07;47.59
15817;BME280;8009;50.070;8.232;2023-06-26T00:20:25;99827.09;;;23.08;47.72
15817;BME280;8009;50.070;8.232;2023-06-26T00:22:53;99832.59;;;23.08;47.60
15817;BME280;8009;50.070;8.232;2023-06-26T00:25:24;99822.88;;;23.41;46.72
15817;BME280;8009;50.070;8.232;2023-06-26T00:27:55;99826.06;;;23.44;48.12
15817;BME280;8009;50.070;8.232;2023-06-26T00:30:23;99822.03;;;23.12;47.68
15817;BME280;8009;50.070;8.232;2023-06-26T00:32:51;99822.59;;;23.01;48.70
15817;BME280;8009;50.070;8.232;2023-06-26T00:35:19;99818.25;;;23.13;47.74
15817;BME280;8009;50.070;8.232;2023-06-26T00:37:48;99812.38;;;23.23;47.13
15817;BME280;8009;50.070;8.232;2023-06-26T00:40:16;99817.19;;;22.36;49.07
15817;BME280;8009;50.070;8.232;2023-06-26T00:42:45;99818.19;;;22.29;49.80
15817;BME280;8009;50.070;8.232;2023-06-26T00:45:16;99806.97;;;22.52;49.47
15817;BME280;8009;50.070;8.232;2023-06-26T00:47:44;99810.13;;;22.12;50.09
15817;BME280;8009;50.070;8.232;2023-06-26T00:50:13;99805.88;;;22.25;49.59
15817;BME280;8009;50.070;8.232;2023-06-26T00:52:43;99807.22;;;22.35;49.62
15817;BME280;8009;50.070;8.232;2023-06-26T00:55:12;99804.91;;;22.60;48.78
15817;BME280;8009;50.070;8.232;2023-06-26T00:57:40;99802.56;;;22.57;49.47
15817;BME280;8009;50.070;8.232;2023-06-26T01:00:12;99811.06;;;21.98;50.64
15817;BME280;8009;50.070;8.232;2023-06-26T01:02:43;99808.78;;;22.02;51.08
15817;BME280;8009;50.070;8.232;2023-06-26T01:05:12;99804.38;;;22.50;49.55
15817;BME280;8009;50.070;8.232;2023-06-26T01:07:47;99801.63;;;22.07;50.73
15817;BME280;8009;50.070;8.232;2023-06-26T01:10:16;99800.28;;;22.39;49.59
15817;BME280;8009;50.070;8.232;2023-06-26T01:12:45;99807.19;;;22.78;48.67
15817;BME280;8009;50.070;8.232;2023-06-26T01:15:14;99803.50;;;21.85;50.87
15817;BME280;8009;50.070;8.232;2023-06-26T01:17:44;99802.78;;;22.62;48.87
15817;BME280;8009;50.070;8.232;2023-06-26T01:20:14;99797.34;;;22.69;48.87
15817;BME280;8009;50.070;8.232;2023-06-26T01:22:48;99802.69;;;22.71;48.84
15817;BME280;8009;50.070;8.232;2023-06-26T01:25:26;99801.72;;;22.85;48.44
15817;BME280;8009;50.070;8.232;2023-06-26T01:28:07;99799.91;;;22.21;50.27
15817;BME280;8009;50.070;8.232;2023-06-26T01:30:41;99796.16;;;21.71;51.55
15817;BME280;8009;50.070;8.232;2023-06-26T01:33:09;99794.94;;;21.59;51.91
15817;BME280;8009;50.070;8.232;2023-06-26T01:35:38;99788.66;;;21.80;51.85
15817;BME280;8009;50.070;8.232;2023-06-26T01:38:15;99790.50;;;21.58;52.08
15817;BME280;8009;50.070;8.232;2023-06-26T01:40:44;99788.19;;;21.98;51.24
15817;BME280;8009;50.070;8.232;2023-06-26T01:43:20;99788.63;;;22.37;50.31
15817;BME280;8009;50.070;8.232;2023-06-26T01:45:56;99788.84;;;22.14;50.56
15817;BME280;8009;50.070;8.232;2023-06-26T01:48:33;99790.69;;;21.93;51.06
15817;BME280;8009;50.070;8.232;2023-06-26T01:51:02;99791.72;;;22.13;50.72
15817;BME280;8009;50.070;8.232;2023-06-26T01:53:36;99792.50;;;21.85;51.03
15817;BME280;8009;50.070;8.232;2023-06-26T01:56:11;99781.53;;;22.28;50.19
15817;BME280;8009;50.070;8.232;2023-06-26T01:58:45;99783.50;;;22.56;49.66
15817;BME280;8009;50.070;8.232;2023-06-26T02:01:15;99787.41;;;22.40;50.53
15817;BME280;8009;50.070;8.232;2023-06-26T02:03:43;99784.81;;;21.96;51.78
15817;BME280;8009;50.070;8.232;2023-06-26T02:06:11;99790.72;;;21.78;51.94
15817;BME280;8009;50.070;8.232;2023-06-26T02:08:40;99794.88;;;21.52;52.55
15817;BME280;8009;50.070;8.232;2023-06-26T02:11:08;99783.63;;;22.05;51.02
15817;BME280;8009;50.070;8.232;2023-06-26T02:13:37;99780.88;;;21.83;51.15
15817;BME280;8009;50.070;8.232;2023-06-26T02:16:08;99788.78;;;21.57;52.08
15817;BME280;8009;50.070;8.232;2023-06-26T02:18:37;99783.94;;;21.95;50.79
15817;BME280;8009;50.070;8.232;2023-06-26T02:21:06;99781.28;;;21.65;52.03
15817;BME280;8009;50.070;8.232;2023-06-26T02:23:35;99787.19;;;21.48;52.56
15817;BME280;8009;50.070;8.232;2023-06-26T02:26:03;99776.84;;;21.86;51.47
15817;BME280;8009;50.070;8.232;2023-06-26T02:28:32;99788.28;;;21.68;52.77
15817;BME280;8009;50.070;8.232;2023-06-26T02:31:00;99780.81;;;21.98;50.70
15817;BME280;8009;50.070;8.232;2023-06-26T02:33:36;99779.34;;;22.17;50.76
15817;BME280;8009;50.070;8.232;2023-06-26T02:36:05;99777.03;;;22.21;50.84
15817;BME280;8009;50.070;8.232;2023-06-26T02:38:35;99782.59;;;22.06;52.13
15817;BME280;8009;50.070;8.232;2023-06-26T02:41:03;99789.56;;;21.51;52.38
15817;BME280;8009;50.070;8.232;2023-06-26T02:43:32;99788.31;;;21.53;52.46
15817;BME280;8009;50.070;8.232;2023-06-26T02:46:00;99790.88;;;21.55;52.79
15817;BME280;8009;50.070;8.232;2023-06-26T02:48:28;99796.69;;;21.45;52.33
15817;BME280;8009;50.070;8.232;2023-06-26T02:50:59;99791.19;;;21.45;52.36
15817;BME280;8009;50.070;8.232;2023-06-26T02:53:27;99778.72;;;21.79;51.47
15817;BME280;8009;50.070;8.232;2023-06-26T02:55:56;99782.81;;;21.89;51.46
15817;BME280;8009;50.070;8.232;2023-06-26T02:58:24;99791.81;;;21.98;51.13
15817;BME280;8009;50.070;8.232;2023-06-26T03:00:53;99780.88;;;21.83;51.68
15817;BME280;8009;50.070;8.232;2023-06-26T03:03:21;99770.50;;;21.85;52.08
15817;BME280;8009;50.070;8.232;2023-06-26T03:05:50;99788.41;;;21.96;51.75
15817;BME280;8009;50.070;8.232;2023-06-26T03:08:20;99784.63;;;21.31;53.09
15817;BME280;8009;50.070;8.232;2023-06-26T03:10:49;99781.50;;;21.49;52.85
15817;BME280;8009;50.070;8.232;2023-06-26T03:13:17;99783.94;;;21.59;52.59
15817;BME280;8009;50.070;8.232;2023-06-26T03:15:45;99786.25;;;21.11;53.94
15817;BME280;8009;50.070;8.232;2023-06-26T03:18:14;99786.16;;;21.49;53.39
15817;BME280;8009;50.070;8.232;2023-06-26T03:20:42;99785.69;;;21.81;52.68
15817;BME280;8009;50.070;8.232;2023-06-26T03:23:10;99784.44;;;21.48;53.33
15817;BME280;8009;50.070;8.232;2023-06-26T03:25:41;99777.56;;;21.73;53.33
15817;BME280;8009;50.070;8.232;2023-06-26T03:28:10;99784.75;;;21.38;53.58
15817;BME280;8009;50.070;8.232;2023-06-26T03:30:38;99772.31;;;20.98;54.41
15817;BME280;8009;50.070;8.232;2023-06-26T03:33:06;99780.44;;;20.61;55.71
15817;BME280;8009;50.070;8.232;2023-06-26T03:35:35;99776.38;;;20.87;54.54
15817;BME280;8009;50.070;8.232;2023-06-26T03:38:04;99774.22;;;21.12;53.78
15817;BME280;8009;50.070;8.232;2023-06-26T03:40:32;99782.66;;;21.10;53.62
15817;BME280;8009;50.070;8.232;2023-06-26T03:43:03;99780.19;;;21.01;54.06
15817;BME280;8009;50.070;8.232;2023-06-26T03:45:32;99778.09;;;20.88;54.06
15817;BME280;8009;50.070;8.232;2023-06-26T03:48:00;99768.44;;;20.77;54.25
15817;BME280;8009;50.070;8.232;2023-06-26T03:50:28;99771.19;;;20.92;55.06
15817;BME280;8009;50.070;8.232;2023-06-26T03:52:56;99769.53;;;20.53;55.39
15817;BME280;8009;50.070;8.232;2023-06-26T03:55:25;99770.41;;;20.68;55.06
15817;BME280;8009;50.070;8.232;2023-06-26T03:57:53;99782.91;;;20.48;55.38
15817;BME280;8009;50.070;8.232;2023-06-26T04:00:24;99776.78;;;20.46;56.13
15817;BME280;8009;50.070;8.232;2023-06-26T04:02:53;99781.78;;;21.25;54.68
15817;BME280;8009;50.070;8.232;2023-06-26T04:05:21;99778.00;;;21.26;54.21
15817;BME280;8009;50.070;8.232;2023-06-26T04:07:50;99780.38;;;21.44;53.63
15817;BME280;8009;50.070;8.232;2023-06-26T04:10:19;99775.91;;;21.13;54.30
15817;BME280;8009;50.070;8.232;2023-06-26T04:12:47;99777.53;;;21.22;54.37
15817;BME280;8009;50.070;8.232;2023-06-26T04:15:16;99779.50;;;21.28;53.82
15817;BME280;8009;50.070;8.232;2023-06-26T04:17:48;99777.09;;;21.33;52.75
15817;BME280;8009;50.070;8.232;2023-06-26T04:20:16;99780.81;;;21.17;54.18
15817;BME280;8009;50.070;8.232;2023-06-26T04:22:44;99779.50;;;21.13;53.15
15817;BME280;8009;50.070;8.232;2023-06-26T04:25:13;99783.50;;;21.40;52.33
15817;BME280;8009;50.070;8.232;2023-06-26T04:27:41;99785.56;;;20.64;54.66
15817;BME280;8009;50.070;8.232;2023-06-26T04:30:11;99782.63;;;21.55;53.27
15817;BME280;8009;50.070;8.232;2023-06-26T04:32:39;99781.22;;;21.44;52.57
15817;BME280;8009;50.070;8.232;2023-06-26T04:35:10;99777.28;;;22.04;51.96
15817;BME280;8009;50.070;8.232;2023-06-26T04:37:39;99777.47;;;21.66;51.75
15817;BME280;8009;50.070;8.232;2023-06-26T04:40:09;99776.47;;;21.68;52.00
15817;BME280;8009;50.070;8.232;2023-06-26T04:42:38;99775.50;;;21.97;52.06
15817;BME280;8009;50.070;8.232;2023-06-26T04:45:07;99776.78;;;22.16;51.29
15817;BME280;8009;50.070;8.232;2023-06-26T04:47:35;99769.28;;;21.88;52.63
15817;BME280;8009;50.070;8.232;2023-06-26T04:50:06;99774.25;;;22.14;52.23
15817;BME280;8009;50.070;8.232;2023-06-26T04:52:37;99777.03;;;22.21;52.65
15817;BME280;8009;50.070;8.232;2023-06-26T04:55:06;99777.16;;;22.34;51.92
15817;BME280;8009;50.070;8.232;2023-06-26T04:57:37;99784.03;;;22.23;52.01
15817;BME280;8009;50.070;8.232;2023-06-26T05:00:06;99779.31;;;22.38;52.18
15817;BME280;8009;50.070;8.232;2023-06-26T05:02:36;99780.69;;;22.49;52.12
15817;BME280;8009;50.070;8.232;2023-06-26T05:05:05;99784.03;;;22.45;53.32
15817;BME280;8009;50.070;8.232;2023-06-26T05:07:34;99780.38;;;22.37;52.66
15817;BME280;8009;50.070;8.232;2023-06-26T05:10:05;99781.38;;;22.58;52.71
15817;BME280;8009;50.070;8.232;2023-06-26T05:12:34;99774.44;;;22.62;52.86
15817;BME280;8009;50.070;8.232;2023-06-26T05:15:03;99781.22;;;22.59;53.49
15817;BME280;8009;50.070;8.232;2023-06-26T05:17:31;99783.97;;;22.59;52.92
15817;BME280;8009;50.070;8.232;2023-06-26T05:19:59;99781.78;;;22.55;53.07
15817;BME280;8009;50.070;8.232;2023-06-26T05:22:29;99788.16;;;22.34;54.63
15817;BME280;8009;50.070;8.232;2023-06-26T05:24:59;99782.78;;;22.47;53.00
15817;BME280;8009;50.070;8.232;2023-06-26T05:27:31;99791.78;;;22.62;52.95
15817;BME280;8009;50.070;8.232;2023-06-26T05:30:00;99789.41;;;22.53;53.50
15817;BME280;8009;50.070;8.232;2023-06-26T05:32:30;99789.09;;;22.41;53.50
15817;BME280;8009;50.070;8.232;2023-06-26T05:35:02;99796.81;;;22.52;52.35
15817;BME280;8009;50.070;8.232;2023-06-26T05:37:34;99788.34;;;22.54;51.58
15817;BME280;8009;50.070;8.232;2023-06-26T05:40:03;99788.66;;;22.66;51.88
15817;BME280;8009;50.070;8.232;2023-06-26T05:42:37;99789.31;;;22.68;51.84
15817;BME280;8009;50.070;8.232;2023-06-26T05:45:06;99790.66;;;22.78;51.63
15817;BME280;8009;50.070;8.232;2023-06-26T05:47:37;99781.84;;;22.90;51.13
15817;BME280;8009;50.070;8.232;2023-06-26T05:50:07;99773.91;;;23.01;51.78
15817;BME280;8009;50.070;8.232;2023-06-26T05:52:37;99775.16;;;22.99;52.13
15817;BME280;8009;50.070;8.232;2023-06-26T05:55:07;99786.47;;;23.10;50.11
15817;BME280;8009;50.070;8.232;2023-06-26T05:57:39;99781.16;;;22.31;51.51
15817;BME280;8009;50.070;8.232;2023-06-26T06:00:09;99782.22;;;22.58;50.44
15817;BME280;8009;50.070;8.232;2023-06-26T06:02:38;99772.41;;;22.99;50.95
15817;BME280;8009;50.070;8.232;2023-06-26T06:05:07;99770.03;;;23.24;50.17
15817;BME280;8009;50.070;8.232;2023-06-26T06:07:39;99774.53;;;23.38;50.28
15817;BME280;8009;50.070;8.232;2023-06-26T06:10:10;99772.03;;;23.43;49.85
15817;BME280;8009;50.070;8.232;2023-06-26T06:12:41;99772.00;;;23.37;48.16
15817;BME280;8009;50.070;8.232;2023-06-26T06:15:10;99778.78;;;23.41;50.35
15817;BME280;8009;50.070;8.232;2023-06-26T06:17:38;99769.13;;;23.17;49.77
15817;BME280;8009;50.070;8.232;2023-06-26T06:20:07;99775.88;;;23.55;49.23
15817;BME280;8009;50.070;8.232;2023-06-26T06:22:35;99772.47;;;23.53;48.16
15817;BME280;8009;50.070;8.232;2023-06-26T06:25:05;99783.84;;;23.37;49.63
15817;BME280;8009;50.070;8.232;2023-06-26T06:27:33;99773.69;;;23.86;48.70
15817;BME280;8009;50.070;8.232;2023-06-26T06:30:05;99768.84;;;23.46;48.81
15817;BME280;8009;50.070;8.232;2023-06-26T06:32:33;99767.75;;;23.95;48.44
15817;BME280;8009;50.070;8.232;2023-06-26T06:35:04;99764.41;;;24.13;48.87
15817;BME280;8009;50.070;8.232;2023-06-26T06:37:35;99764.63;;;24.18;49.69
15817;BME280;8009;50.070;8.232;2023-06-26T06:40:04;99768.44;;;24.30;49.94
15817;BME280;8009;50.070;8.232;2023-06-26T06:42:33;99775.03;;;24.29;49.76
15817;BME280;8009;50.070;8.232;2023-06-26T06:45:06;99758.31;;;24.44;47.70
15817;BME280;8009;50.070;8.232;2023-06-26T06:47:35;99765.31;;;24.47;48.10
15817;BME280;8009;50.070;8.232;2023-06-26T06:50:04;99766.59;;;24.51;49.20
15817;BME280;8009;50.070;8.232;2023-06-26T06:52:36;99764.03;;;24.49;48.29
15817;BME280;8009;50.070;8.232;2023-06-26T06:55:07;99774.00;;;24.64;47.61
15817;BME280;8009;50.070;8.232;2023-06-26T06:57:36;99775.28;;;24.41;46.57
15817;BME280;8009;50.070;8.232;2023-06-26T07:00:10;99777.41;;;24.52;46.52
15817;BME280;8009;50.070;8.232;2023-06-26T07:02:41;99775.47;;;24.79;47.02
15817;BME280;8009;50.070;8.232;2023-06-26T07:05:11;99775.06;;;24.76;46.85
15817;BME280;8009;50.070;8.232;2023-06-26T07:07:40;99789.72;;;24.43;46.43
15817;BME280;8009;50.070;8.232;2023-06-26T07:10:10;99780.53;;;24.16;46.60
15817;BME280;8009;50.070;8.232;2023-06-26T07:12:39;99770.59;;;24.75;46.13
15817;BME280;8009;50.070;8.232;2023-06-26T07:15:12;99777.19;;;24.67;46.00
15817;BME280;8009;50.070;8.232;2023-06-26T07:17:40;99776.72;;;25.23;44.87
15817;BME280;8009;50.070;8.232;2023-06-26T07:20:09;99775.88;;;25.16;45.65
15817;BME280;8009;50.070;8.232;2023-06-26T07:22:41;99764.66;;;25.11;45.93
15817;BME280;8009;50.070;8.232;2023-06-26T07:25:10;99772.28;;;24.96;43.95
15817;BME280;8009;50.070;8.232;2023-06-26T07:27:40;99766.31;;;25.19;44.38
15817;BME280;8009;50.070;8.232;2023-06-26T07:30:14;99766.53;;;25.17;43.36
15817;BME280;8009;50.070;8.232;2023-06-26T07:32:44;99756.03;;;25.46;41.66
15817;BME280;8009;50.070;8.232;2023-06-26T07:35:13;99762.91;;;25.17;43.35
15817;BME280;8009;50.070;8.232;2023-06-26T07:37:41;99758.94;;;25.58;41.65
15817;BME280;8009;50.070;8.232;2023-06-26T07:40:10;99761.56;;;25.46;41.20
15817;BME280;8009;50.070;8.232;2023-06-26T07:42:39;99774.63;;;25.64;41.12
15817;BME280;8009;50.070;8.232;2023-06-26T07:45:09;99770.13;;;25.83;41.11
15817;BME280;8009;50.070;8.232;2023-06-26T07:47:40;99768.19;;;26.21;42.48
15817;BME280;8009;50.070;8.232;2023-06-26T07:50:10;99769.34;;;26.07;40.36
15817;BME280;8009;50.070;8.232;2023-06-26T07:52:41;99776.88;;;25.93;40.10
15817;BME280;8009;50.070;8.232;2023-06-26T07:55:09;99774.03;;;26.07;39.29
15817;BME280;8009;50.070;8.232;2023-06-26T07:57:37;99776.06;;;25.86;40.52
15817;BME280;8009;50.070;8.232;2023-06-26T08:00:07;99773.13;;;25.68;40.56
15817;BME280;8009;50.070;8.232;2023-06-26T08:02:35;99773.09;;;25.74;40.31
15817;BME280;8009;50.070;8.232;2023-06-26T08:05:07;99774.53;;;25.90;43.12
15817;BME280;8009;50.070;8.232;2023-06-26T08:07:35;99780.84;;;26.04;40.39
15817;BME280;8009;50.070;8.232;2023-06-26T08:10:04;99790.69;;;25.93;42.87
15817;BME280;8009;50.070;8.232;2023-06-26T08:12:33;99790.66;;;26.00;41.83
15817;BME280;8009;50.070;8.232;2023-06-26T08:15:02;99785.34;;;25.98;41.75
15817;BME280;8009;50.070;8.232;2023-06-26T08:17:31;99783.38;;;26.06;45.64
15817;BME280;8009;50.070;8.232;2023-06-26T08:19:59;99778.44;;;25.76;42.36
15817;BME280;8009;50.070;8.232;2023-06-26T08:22:30;99778.59;;;26.26;41.89
15817;BME280;8009;50.070;8.232;2023-06-26T08:24:59;99780.09;;;26.79;41.48
15817;BME280;8009;50.070;8.232;2023-06-26T08:27:29;99772.59;;;27.04;41.05
15817;BME280;8009;50.070;8.232;2023-06-26T08:29:57;99762.16;;;27.43;41.48
15817;BME280;8009;50.070;8.232;2023-06-26T08:32:25;99765.63;;;27.20;40.42
15817;BME280;8009;50.070;8.232;2023-06-26T08:34:54;99767.81;;;27.18;40.06
15817;BME280;8009;50.070;8.232;2023-06-26T08:37:22;99771.75;;;27.04;43.35
15817;BME280;8009;50.070;8.232;2023-06-26T08:39:54;99776.31;;;26.98;43.64
15817;BME280;8009;50.070;8.232;2023-06-26T08:42:25;99784.72;;;27.28;40.49
15817;BME280;8009;50.070;8.232;2023-06-26T08:44:55;99771.31;;;28.10;38.91
15817;BME280;8009;50.070;8.232;2023-06-26T08:47:24;99775.97;;;28.28;37.15
15817;BME280;8009;50.070;8.232;2023-06-26T08:50:01;99769.59;;;29.05;37.13
15817;BME280;8009;50.070;8.232;2023-06-26T08:52:36;99763.91;;;29.00;36.72
15817;BME280;8009;50.070;8.232;2023-06-26T08:55:12;99763.88;;;29.11;36.63
15817;BME280;8009;50.070;8.232;2023-06-26T08:57:43;99770.69;;;29.16;36.56
15817;BME280;8009;50.070;8.232;2023-06-26T09:00:12;99763.72;;;29.42;36.47
15817;BME280;8009;50.070;8.232;2023-06-26T09:02:42;99763.72;;;29.94;37.08
15817;BME280;8009;50.070;8.232;2023-06-26T09:05:11;99768.56;;;29.58;37.11
15817;BME280;8009;50.070;8.232;2023-06-26T09:07:39;99766.38;;;29.48;35.96
15817;BME280;8009;50.070;8.232;2023-06-26T09:10:11;99773.38;;;29.51;36.74
15817;BME280;8009;50.070;8.232;2023-06-26T09:12:39;99770.78;;;29.84;35.47
15817;BME280;8009;50.070;8.232;2023-06-26T09:15:07;99774.03;;;30.10;35.78
15817;BME280;8009;50.070;8.232;2023-06-26T09:17:39;99769.72;;;29.74;35.78
15817;BME280;8009;50.070;8.232;2023-06-26T09:20:09;99772.94;;;30.23;35.22
15817;BME280;8009;50.070;8.232;2023-06-26T09:22:41;99785.25;;;29.58;36.58
15817;BME280;8009;50.070;8.232;2023-06-26T09:25:12;99789.72;;;28.77;36.96
15817;BME280;8009;50.070;8.232;2023-06-26T09:27:43;99798.16;;;28.58;37.27
15817;BME280;8009;50.070;8.232;2023-06-26T09:30:12;99798.38;;;28.57;37.86
15817;BME280;8009;50.070;8.232;2023-06-26T09:32:44;99792.47;;;28.23;38.72
15817;BME280;8009;50.070;8.232;2023-06-26T09:35:13;99798.44;;;29.04;36.13
15817;BME280;8009;50.070;8.232;2023-06-26T09:37:41;99797.94;;;29.30;36.65
15817;BME280;8009;50.070;8.232;2023-06-26T09:40:13;99812.81;;;28.35;36.98
15817;BME280;8009;50.070;8.232;2023-06-26T09:42:42;99820.94;;;28.18;37.80
15817;BME280;8009;50.070;8.232;2023-06-26T09:45:18;99827.78;;;27.67;41.32
15817;BME280;8009;50.070;8.232;2023-06-26T09:47:47;99825.56;;;27.76;40.47
15817;BME280;8009;50.070;8.232;2023-06-26T09:50:22;99833.09;;;27.69;38.27
15817;BME280;8009;50.070;8.232;2023-06-26T09:52:52;99834.34;;;28.22;38.19
15817;BME280;8009;50.070;8.232;2023-06-26T09:55:26;99818.56;;;28.52;35.74
15817;BME280;8009;50.070;8.232;2023-06-26T09:57:56;99810.81;;;29.08;38.32
15817;BME280;8009;50.070;8.232;2023-06-26T10:00:27;99806.91;;;28.85;36.78
15817;BME280;8009;50.070;8.232;2023-06-26T10:02:55;99807.41;;;29.18;35.82
15817;BME280;8009;50.070;8.232;2023-06-26T10:05:23;99793.25;;;29.31;36.00
15817;BME280;8009;50.070;8.232;2023-06-26T10:07:52;99800.44;;;29.79;35.11
15817;BME280;8009;50.070;8.232;2023-06-26T10:10:26;99798.06;;;29.99;36.97
15817;BME280;8009;50.070;8.232;2023-06-26T10:12:59;99801.41;;;29.84;35.51
15817;BME280;8009;50.070;8.232;2023-06-26T10:15:29;99794.78;;;30.31;34.81
15817;BME280;8009;50.070;8.232;2023-06-26T10:17:59;99807.19;;;29.83;34.83
15817;BME280;8009;50.070;8.232;2023-06-26T10:20:28;99790.84;;;30.15;34.29
15817;BME280;8009;50.070;8.232;2023-06-26T10:23:00;99786.22;;;30.66;33.69
15817;BME280;8009;50.070;8.232;2023-06-26T10:25:37;99788.47;;;30.52;34.04
15817;BME280;8009;50.070;8.232;2023-06-26T10:28:11;99791.81;;;30.83;34.80
15817;BME280;8009;50.070;8.232;2023-06-26T10:30:41;99786.81;;;30.68;34.00
15817;BME280;8009;50.070;8.232;2023-06-26T10:33:11;99784.69;;;29.84;35.92
15817;BME280;8009;50.070;8.232;2023-06-26T10:35:43;99794.47;;;29.23;36.17
15817;BME280;8009;50.070;8.232;2023-06-26T10:38:12;99790.91;;;30.03;36.22
15817;BME280;8009;50.070;8.232;2023-06-26T10:40:45;99784.97;;;30.91;34.86
15817;BME280;8009;50.070;8.232;2023-06-26T10:43:14;99787.97;;;31.23;34.00
15817;BME280;8009;50.070;8.232;2023-06-26T10:45:44;99783.63;;;30.93;34.88
15817;BME280;8009;50.070;8.232;2023-06-26T10:48:17;99788.31;;;30.59;34.51
15817;BME280;8009;50.070;8.232;2023-06-26T10:50:47;99788.81;;;30.56;34.02
15817;BME280;8009;50.070;8.232;2023-06-26T10:53:23;99786.16;;;29.75;37.85
15817;BME280;8009;50.070;8.232;2023-06-26T10:56:02;99781.94;;;30.75;35.87
15817;BME280;8009;50.070;8.232;2023-06-26T10:58:40;99787.38;;;30.08;35.21
15817;BME280;8009;50.070;8.232;2023-06-26T11:01:21;99779.03;;;30.53;37.16
15817;BME280;8009;50.070;8.232;2023-06-26T11:04:01;99790.31;;;29.61;36.58
15817;BME280;8009;50.070;8.232;2023-06-26T11:06:31;99795.28;;;29.59;35.84
15817;BME280;8009;50.070;8.232;2023-06-26T11:09:01;99789.63;;;29.19;35.12
15817;BME280;8009;50.070;8.232;2023-06-26T11:11:58;99801.69;;;28.77;38.54
15817;BME280;8009;50.070;8.232;2023-06-26T11:14:30;99805.09;;;29.03;36.83
15817;BME280;8009;50.070;8.232;2023-06-26T11:17:02;99790.72;;;29.18;35.93
15817;BME280;8009;50.070;8.232;2023-06-26T11:19:31;99790.38;;;30.06;36.10
15817;BME280;8009;50.070;8.232;2023-06-26T11:22:03;99784.25;;;29.64;36.42
15817;BME280;8009;50.070;8.232;2023-06-26T11:24:32;99783.19;;;29.65;36.17
15817;BME280;8009;50.070;8.232;2023-06-26T11:27:04;99789.53;;;29.02;36.86
15817;BME280;8009;50.070;8.232;2023-06-26T11:29:33;99791.56;;;29.30;36.26
15817;BME280;8009;50.070;8.232;2023-06-26T11:32:04;99789.28;;;29.27;36.79
15817;BME280;8009;50.070;8.232;2023-06-26T11:34:34;99780.81;;;29.10;37.84
15817;BME280;8009;50.070;8.232;2023-06-26T11:37:04;99795.44;;;29.29;37.51
15817;BME280;8009;50.070;8.232;2023-06-26T11:39:33;99792.28;;;29.89;36.47
15817;BME280;8009;50.070;8.232;2023-06-26T11:42:05;99787.53;;;30.30;35.61
15817;BME280;8009;50.070;8.232;2023-06-26T11:44:39;99796.47;;;30.32;34.94
15817;BME280;8009;50.070;8.232;2023-06-26T11:47:12;99801.19;;;29.74;36.60
15817;BME280;8009;50.070;8.232;2023-06-26T11:49:42;99802.50;;;29.72;33.50
15817;BME280;8009;50.070;8.232;2023-06-26T11:52:10;99811.81;;;29.77;33.38
15817;BME280;8009;50.070;8.232;2023-06-26T11:54:40;99807.28;;;29.24;35.19
15817;BME280;8009;50.070;8.232;2023-06-26T11:57:13;99811.34;;;29.69;36.07
15817;BME280;8009;50.070;8.232;2023-06-26T11:59:42;99813.53;;;29.67;36.91
15817;BME280;8009;50.070;8.232;2023-06-26T12:02:13;99811.84;;;29.66;36.20
15817;BME280;8009;50.070;8.232;2023-06-26T12:04:42;99818.28;;;29.43;36.98
15817;BME280;8009;50.070;8.232;2023-06-26T12:07:12;99818.00;;;29.68;37.15
15817;BME280;8009;50.070;8.232;2023-06-26T12:09:45;99815.88;;;29.58;37.08
15817;BME280;8009;50.070;8.232;2023-06-26T12:12:18;99827.13;;;29.16;38.08
15817;BME280;8009;50.070;8.232;2023-06-26T12:14:46;99828.84;;;28.63;39.16
15817;BME280;8009;50.070;8.232;2023-06-26T12:17:15;99824.56;;;29.26;38.85
15817;BME280;8009;50.070;8.232;2023-06-26T12:19:45;99823.63;;;28.55;39.61
15817;BME280;8009;50.070;8.232;2023-06-26T12:22:15;99832.06;;;29.02;38.67
15817;BME280;8009;50.070;8.232;2023-06-26T12:24:45;99826.44;;;28.79;38.94
15817;BME280;8009;50.070;8.232;2023-06-26T12:27:18;99828.03;;;28.86;39.40
15817;BME280;8009;50.070;8.232;2023-06-26T12:29:50;99835.94;;;29.01;38.42
15817;BME280;8009;50.070;8.232;2023-06-26T12:32:22;99827.69;;;28.41;40.74
15817;BME280;8009;50.070;8.232;2023-06-26T12:34:51;99840.16;;;29.04;39.15
15817;BME280;8009;50.070;8.232;2023-06-26T12:37:19;99837.63;;;29.14;38.23
15817;BME280;8009;50.070;8.232;2023-06-26T12:39:49;99838.34;;;29.33;38.35
15817;BME280;8009;50.070;8.232;2023-06-26T12:42:21;99836.41;;;29.22;37.97
15817;BME280;8009;50.070;8.232;2023-06-26T12:44:50;99844.03;;;29.50;36.96
15817;BME280;8009;50.070;8.232;2023-06-26T12:47:24;99843.06;;;29.32;36.95
15817;BME280;8009;50.070;8.232;2023-06-26T12:49:53;99850.56;;;29.44;37.63
15817;BME280;8009;50.070;8.232;2023-06-26T12:52:23;99849.09;;;29.18;37.93
15817;BME280;8009;50.070;8.232;2023-06-26T12:54:53;99845.22;;;29.07;38.37
15817;BME280;8009;50.070;8.232;2023-06-26T12:57:24;99848.16;;;29.35;37.95
15817;BME280;8009;50.070;8.232;2023-06-26T12:59:52;99847.78;;;29.44;36.59
15817;BME280;8009;50.070;8.232;2023-06-26T13:02:21;99854.06;;;29.62;36.01
15817;BME280;8009;50.070;8.232;2023-06-26T13:04:49;99848.03;;;29.42;36.06
15817;BME280;8009;50.070;8.232;2023-06-26T13:07:17;99861.69;;;29.32;35.37
15817;BME280;8009;50.070;8.232;2023-06-26T13:09:46;99845.72;;;29.27;35.57
15817;BME280;8009;50.070;8.232;2023-06-26T13:12:15;99852.25;;;28.98;36.05
15817;BME280;8009;50.070;8.232;2023-06-26T13:14:46;99836.19;;;29.23;35.36
15817;BME280;8009;50.070;8.232;2023-06-26T13:17:14;99837.38;;;29.39;35.84
15817;BME280;8009;50.070;8.232;2023-06-26T13:19:43;99841.91;;;28.75;35.48
15817;BME280;8009;50.070;8.232;2023-06-26T13:22:11;99850.94;;;28.58;35.84
15817;BME280;8009;50.070;8.232;2023-06-26T13:24:42;99854.72;;;28.87;35.84